East Hartford, CT

9:29 AM EDT on September 04, 2015 (GMT -0400)
Hartford-brainard | | Change Station
CLOSE
Current Station
Airport
Location: Hartford,
Elevation: 16 ft
Nearby Weather Stations

Elev 16 ft 41.74 °N, 72.65 °W | Updated 36 minutes ago

Overcast
Overcast
74 °F
Feels Like 74 °F
N
8
Wind Variable Wind from NNE

Today
High -- | Low -- °F
--% Chance of Precip.
Yesterday
High -- | Low -- °F
Precip. -- in
6:19 AM 7:19 PM
Waning Gibbous, 59% visible
Pressure 30.08 in
Visibility 10.0 miles
Clouds Overcast 1800 ft
Dew Point 68 °F
Humidity 82%
Rainfall 0.00 in
Snow Depth Not available.
UV 1 out of 12
Pollen 8.80 out of 12
Air Quality Not available.
Flu Activity Not available.
METAR KHFD 041253Z 02007KT 10SM OVC018 23/20 A3008 RMK AO2 SLP186 T02330200
Pressure 30.08 in
Visibility 10.0 miles
Clouds Overcast 1800 ft
Dew Point 68 °F
Humidity 82%
Rainfall 0.00 in
Snow Depth Not available.
UV 1 out of 12
Pollen 8.80 out of 12
Air Quality Not available.
Flu Activity Not available.
METAR KHFD 041253Z 02007KT 10SM OVC018 23/20 A3008 RMK AO2 SLP186 T02330200

10-Day Weather Forecast

×

Almanac

Astronomy

Sep. 04, 2015 Rise Set
Actual Time
Civil Twilight
Nautical Twilight
Astronomical Twilight
Moon
Length of Visible Light
Length of Day
Tomorrow will be .
, % of the Moon is Illuminated

Today's Extremes

State Highs State Lows

Community

WunderPhotos

Upload Photos

1,852,179 photos uploaded!

WunderBlogs® & News

Nearby

Air Quality

  Air Quality AQ Index Pollutant
Not available.

Snow Depth

Station Depth Elevation

Earthquake Activity

City Distance Mag. Time & Date
Minimum magnitude displayed is 2.5.

Coastal Water Temperatures

Place Temperature

Stations

Nearby Weather Stations

Station Location Temp. Windchill Dew Point Humidity Wind Precip. Elev Updated Type